Time;durP1;ratioP1;P1;durP2;ratioP2;P2;SDS_P1;SDS_P2;PMS_P1;PMS_P2;Temp;Humidity;BMP_temperature;BMP_pressure;BME280_temperature;BME280_humidity;BME280_pressure;Samples;Min_cycle;Max_cycle;Signal;HPM_P1;HPM_P2
2022/12/26 04:41:34;;;;;;;2.27;1.50;;;12.10;78.10;;;;;;5014566;28;20881;-73
2022/12/26 04:46:21;;;;;;;2.53;1.50;;;11.90;78.60;;;;;;5014339;28;20423;-73
2022/12/26 04:51:35;;;;;;;2.53;1.47;;;11.90;79.10;;;;;;5014151;28;20510;-73
2022/12/26 04:54:03;;;;;;;2.00;1.47;;;12.00;79.00;;;;;;5014099;28;20457;-73
2022/12/26 04:56:30;;;;;;;2.60;1.70;;;12.00;78.70;;;;;;5014062;28;20485;-74
2022/12/26 04:58:57;;;;;;;2.50;1.60;;;12.00;78.40;;;;;;5014069;28;20448;-73
2022/12/26 05:09:42;;;;;;;2.73;1.57;;;11.90;78.80;;;;;;4983691;28;20463;-73
2022/12/26 05:12:10;;;;;;;2.13;1.40;;;11.90;78.90;;;;;;5013385;28;20464;-73
2022/12/26 05:14:36;;;;;;;5.80;1.60;;;11.90;79.20;;;;;;5013804;28;20522;-74
2022/12/26 05:30:57;;;;;;;2.13;1.60;;;11.60;79.60;;;;;;5013454;28;20818;-73
2022/12/26 05:36:08;;;;;;;2.40;1.77;;;11.60;79.60;;;;;;5013805;28;20411;-74
2022/12/26 05:38:36;;;;;;;2.40;1.63;;;11.70;79.50;;;;;;5014738;28;20498;-73
2022/12/26 05:41:04;;;;;;;3.13;1.70;;;11.90;79.30;;;;;;5017389;28;20484;-73
2022/12/26 05:43:30;;;;;;;2.20;1.50;;;11.90;78.60;;;;;;5017514;28;20499;-74
2022/12/26 05:45:57;;;;;;;2.20;1.50;;;12.00;78.80;;;;;;5017132;28;20942;-74
2022/12/26 05:48:24;;;;;;;1.80;1.23;;;12.10;78.10;;;;;;5017250;28;20945;-74
2022/12/26 05:50:51;;;;;;;2.30;1.37;;;12.10;78.20;;;;;;5017033;28;20989;-74
2022/12/26 05:53:18;;;;;;;2.20;1.50;;;12.10;78.10;;;;;;5017028;28;20948;-74
2022/12/26 05:55:45;;;;;;;2.50;1.60;;;12.20;77.50;;;;;;5017474;28;20452;-74
2022/12/26 05:58:12;;;;;;;2.20;1.20;;;12.30;77.60;;;;;;5017248;28;20514;-74
2022/12/26 06:00:39;;;;;;;2.73;1.40;;;12.40;77.50;;;;;;5016592;28;20871;-74
2022/12/26 06:03:05;;;;;;;2.40;1.60;;;12.50;76.70;;;;;;5017303;28;20436;-73
2022/12/26 06:05:32;;;;;;;2.30;1.40;;;12.40;76.80;;;;;;5017225;28;20444;-74
2022/12/26 06:07:59;;;;;;;4.20;1.50;;;12.40;77.10;;;;;;5017199;28;20444;-73
2022/12/26 06:10:28;;;;;;;2.27;1.53;;;12.30;77.10;;;;;;5016953;28;20475;-73
2022/12/26 06:12:56;;;;;;;2.07;1.30;;;12.30;77.10;;;;;;5017009;28;20495;-74
2022/12/26 06:15:23;;;;;;;2.60;1.70;;;12.30;77.30;;;;;;5017507;28;20456;-73
2022/12/26 06:17:50;;;;;;;1.93;1.30;;;12.30;77.50;;;;;;5017033;28;20448;-73
2022/12/26 06:20:16;;;;;;;1.83;1.23;;;12.20;77.20;;;;;;5016915;28;20503;-73
2022/12/26 06:22:43;;;;;;;2.30;1.17;;;12.20;77.50;;;;;;5016800;28;20538;-73
2022/12/26 06:25:10;;;;;;;3.00;1.10;;;12.30;77.60;;;;;;5016750;28;20444;-73
2022/12/26 06:27:36;;;;;;;2.30;1.50;;;12.30;77.30;;;;;;5017060;28;20495;-73
2022/12/26 06:30:06;;;;;;;2.40;1.70;;;12.30;77.10;;;;;;5016747;28;20443;-73
2022/12/26 06:32:33;;;;;;;2.83;1.50;;;12.30;77.20;;;;;;5016529;28;20472;-74
2022/12/26 06:35:00;;;;;;;2.60;1.80;;;12.30;77.60;;;;;;5016681;28;20452;-74
2022/12/26 06:37:26;;;;;;;2.30;1.53;;;12.20;77.50;;;;;;5016673;28;20518;-74
2022/12/26 06:39:53;;;;;;;2.50;1.80;;;12.20;78.10;;;;;;5016619;28;20448;-73
2022/12/26 06:42:20;;;;;;;2.10;1.30;;;12.20;78.10;;;;;;5016003;28;20906;-75
2022/12/26 06:44:46;;;;;;;2.27;1.50;;;12.30;78.60;;;;;;5016539;28;20453;-75
2022/12/26 06:47:14;;;;;;;2.67;1.40;;;12.50;78.60;;;;;;5016386;28;20451;-75
2022/12/26 06:49:41;;;;;;;2.57;1.70;;;12.60;77.70;;;;;;5015980;28;20444;-74
2022/12/26 06:52:09;;;;;;;2.40;1.47;;;12.80;77.00;;;;;;5016481;28;20460;-74
2022/12/26 06:54:36;;;;;;;2.30;1.50;;;12.80;76.50;;;;;;5016439;28;20456;-73
2022/12/26 06:57:03;;;;;;;2.20;1.40;;;12.90;75.90;;;;;;5016027;28;20436;-74
2022/12/26 06:59:30;;;;;;;2.23;1.40;;;12.90;76.00;;;;;;5016196;28;20444;-74
2022/12/26 07:01:56;;;;;;;2.00;1.20;;;12.90;76.00;;;;;;5015650;28;20567;-74
2022/12/26 07:04:24;;;;;;;2.10;1.37;;;13.00;75.80;;;;;;5016216;28;20453;-74
2022/12/26 07:06:51;;;;;;;2.50;1.80;;;13.10;75.60;;;;;;5015796;28;20961;-74
2022/12/26 07:09:19;;;;;;;2.10;1.40;;;13.20;75.40;;;;;;5015751;28;20870;-74
2022/12/26 07:11:48;;;;;;;2.00;1.30;;;13.40;74.90;;;;;;5016527;28;20867;-75
2022/12/26 07:14:15;;;;;;;3.40;1.70;;;13.40;74.60;;;;;;5017177;28;20460;-75
2022/12/26 07:16:44;;;;;;;2.10;1.30;;;13.20;74.80;;;;;;5016051;28;20939;-75
2022/12/26 07:19:12;;;;;;;2.60;1.47;;;13.20;74.80;;;;;;5015888;28;20453;-74
2022/12/26 07:21:41;;;;;;;2.23;1.40;;;13.20;75.00;;;;;;5015649;28;20480;-74
2022/12/26 07:24:13;;;;;;;2.43;1.53;;;13.10;75.20;;;;;;5015795;28;20498;-74
2022/12/26 07:26:40;;;;;;;2.40;1.53;;;13.00;75.50;;;;;;5015419;28;20855;-75
2022/12/26 07:29:06;;;;;;;3.23;1.87;;;13.00;75.60;;;;;;5015650;28;20919;-74
2022/12/26 07:31:33;;;;;;;2.20;1.53;;;13.10;75.80;;;;;;5015458;28;20519;-74
2022/12/26 07:34:00;;;;;;;2.67;1.50;;;13.00;75.90;;;;;;5015642;28;20444;-74
2022/12/26 07:36:26;;;;;;;2.27;1.47;;;13.00;75.90;;;;;;5015617;28;20453;-74
2022/12/26 07:38:56;;;;;;;2.70;1.77;;;13.00;76.00;;;;;;5015180;28;20456;-74
2022/12/26 07:44:08;;;;;;;2.23;1.60;;;13.20;75.80;;;;;;5015633;28;20404;-75
2022/12/26 07:46:35;;;;;;;2.50;1.73;;;13.30;75.50;;;;;;5015359;28;20449;-75
2022/12/26 07:49:02;;;;;;;2.47;1.30;;;13.30;75.50;;;;;;5015233;28;20502;-75
2022/12/26 07:51:29;;;;;;;2.67;1.90;;;13.30;75.60;;;;;;5015002;28;20978;-75
2022/12/26 07:53:57;;;;;;;3.60;2.70;;;13.20;75.00;;;;;;5015227;28;20479;-75
2022/12/26 07:56:24;;;;;;;2.67;2.20;;;13.20;75.60;;;;;;5015166;28;20440;-76
2022/12/26 07:58:51;;;;;;;2.20;1.60;;;13.20;75.80;;;;;;5015186;28;20440;-74
2022/12/26 08:01:18;;;;;;;2.50;1.87;;;13.20;75.50;;;;;;5014081;28;20481;-75
2022/12/26 08:03:48;;;;;;;2.30;1.70;;;13.20;75.40;;;;;;5014509;28;20444;-75
2022/12/26 08:06:15;;;;;;;2.13;1.57;;;13.20;75.80;;;;;;5014900;28;20506;-74
2022/12/26 08:08:42;;;;;;;2.20;1.53;;;13.20;75.90;;;;;;5015139;28;20506;-74
2022/12/26 08:11:14;;;;;;;2.73;1.60;;;13.20;76.20;;;;;;5015222;28;20514;-75
2022/12/26 08:13:41;;;;;;;2.50;1.93;;;13.20;76.30;;;;;;5014846;28;20485;-74
2022/12/26 08:16:10;;;;;;;2.70;1.67;;;13.10;77.40;;;;;;5014793;28;20444;-74
2022/12/26 08:18:37;;;;;;;3.73;1.70;;;13.10;77.60;;;;;;5029182;28;20476;-73
2022/12/26 08:21:04;;;;;;;3.37;1.57;;;13.00;77.80;;;;;;5036165;28;20465;-75
2022/12/26 08:23:30;;;;;;;2.80;1.63;;;12.90;78.60;;;;;;5034880;28;20487;-75
2022/12/26 08:25:57;;;;;;;2.20;1.50;;;12.90;79.40;;;;;;5019134;28;20996;-74
2022/12/26 08:28:25;;;;;;;2.20;1.53;;;13.00;79.50;;;;;;5014808;28;20498;-74
2022/12/26 08:30:52;;;;;;;2.43;1.83;;;12.90;79.80;;;;;;5014715;28;20476;-75
2022/12/26 08:33:19;;;;;;;2.30;1.53;;;12.70;79.90;;;;;;5014619;28;20444;-74
2022/12/26 08:35:45;;;;;;;2.80;1.93;;;12.70;81.00;;;;;;5014534;28;20527;-73
2022/12/26 08:38:12;;;;;;;3.50;1.80;;;12.70;80.80;;;;;;5014450;28;20503;-73
2022/12/26 08:40:38;;;;;;;2.60;1.90;;;12.70;81.00;;;;;;5014336;28;20449;-74
2022/12/26 08:43:05;;;;;;;2.20;1.80;;;12.70;81.20;;;;;;5014118;28;20852;-74
2022/12/26 08:45:34;;;;;;;2.40;1.80;;;12.70;81.40;;;;;;5014285;28;20484;-74
2022/12/26 08:48:01;;;;;;;2.30;1.43;;;12.80;81.10;;;;;;5014237;28;20503;-74
2022/12/26 08:50:28;;;;;;;3.00;1.60;;;12.70;80.90;;;;;;5014217;28;20448;-74
2022/12/26 08:52:55;;;;;;;2.30;1.90;;;12.80;81.50;;;;;;5013954;28;20499;-73
2022/12/26 08:55:21;;;;;;;2.50;1.50;;;12.80;81.40;;;;;;5014031;28;20444;-74
2022/12/26 08:57:48;;;;;;;2.40;1.50;;;12.90;81.40;;;;;;5014014;28;20456;-72
2022/12/26 09:00:17;;;;;;;2.63;1.80;;;12.80;81.10;;;;;;5014578;28;20445;-73
2022/12/26 09:02:45;;;;;;;3.27;2.13;;;12.90;81.30;;;;;;5013458;28;20491;-74
2022/12/26 09:05:12;;;;;;;2.53;1.60;;;12.80;81.60;;;;;;5013906;28;20448;-74
2022/12/26 09:07:38;;;;;;;2.47;1.60;;;12.80;82.10;;;;;;5013796;28;20437;-75
2022/12/26 09:10:06;;;;;;;2.57;1.90;;;12.60;82.40;;;;;;5013852;28;20456;-75
2022/12/26 09:12:32;;;;;;;2.87;1.90;;;12.70;82.80;;;;;;5013831;28;20460;-75
2022/12/26 09:14:59;;;;;;;2.47;1.70;;;12.70;82.60;;;;;;5013114;28;21000;-75
2022/12/26 09:17:26;;;;;;;3.10;1.73;;;12.70;82.90;;;;;;5013392;28;21012;-74
2022/12/26 09:19:54;;;;;;;2.40;2.10;;;12.70;82.70;;;;;;5013728;28;20935;-73
2022/12/26 09:25:06;;;;;;;3.03;1.97;;;12.60;83.70;;;;;;5013722;28;20416;-75
2022/12/26 09:27:32;;;;;;;2.40;1.60;;;12.50;83.80;;;;;;5013673;28;20444;-74
2022/12/26 09:29:59;;;;;;;2.67;2.17;;;12.50;84.30;;;;;;5013727;28;20464;-75
2022/12/26 09:32:26;;;;;;;2.77;1.83;;;12.50;84.40;;;;;;5013473;28;20555;-75
2022/12/26 09:34:54;;;;;;;2.80;2.10;;;12.50;84.60;;;;;;5013603;28;20506;-75
2022/12/26 09:37:20;;;;;;;2.70;2.10;;;12.60;84.70;;;;;;5013569;28;20495;-75
2022/12/26 09:39:47;;;;;;;3.60;2.00;;;12.40;84.60;;;;;;5014245;28;20449;-75
2022/12/26 09:42:23;;;;;;;2.67;2.13;;;12.20;85.60;;;;;;5013706;28;20483;-74
2022/12/26 09:44:59;;;;;;;2.37;1.97;;;11.80;86.70;;;;;;5013564;28;20531;-74
2022/12/26 09:47:32;;;;;;;3.90;2.30;;;11.80;87.70;;;;;;5013622;28;20432;-74
2022/12/26 09:50:05;;;;;;;3.40;2.13;;;11.80;87.40;;;;;;5013543;28;20439;-75
2022/12/26 09:52:40;;;;;;;3.70;2.60;;;11.80;87.90;;;;;;5013102;28;21040;-75
2022/12/26 09:55:29;;;;;;;2.93;2.00;;;11.80;87.40;;;;;;5013395;28;20435;-75
2022/12/26 09:57:59;;;;;;;2.57;2.07;;;11.80;87.80;;;;;;5013408;28;20437;-75
2022/12/26 10:00:29;;;;;;;3.07;2.67;;;11.80;87.60;;;;;;5013132;28;20452;-74
2022/12/26 10:02:58;;;;;;;3.53;2.90;;;11.80;88.30;;;;;;5012814;28;20546;-75
2022/12/26 10:05:33;;;;;;;3.00;2.37;;;11.90;88.10;;;;;;5013291;28;20452;-74
2022/12/26 10:08:10;;;;;;;2.97;2.47;;;12.00;88.20;;;;;;5013320;28;20437;-75
2022/12/26 10:10:44;;;;;;;4.80;2.73;;;12.10;87.70;;;;;;5013197;28;20436;-75
2022/12/26 10:13:17;;;;;;;3.23;2.47;;;12.20;87.50;;;;;;5013257;28;20516;-74
2022/12/26 10:15:48;;;;;;;4.10;2.50;;;12.10;88.00;;;;;;5021194;23;20562;-74
2022/12/26 10:18:27;;;;;;;4.20;3.70;;;12.00;88.50;;;;;;5013168;28;20440;-74
2022/12/26 10:21:12;;;;;;;3.07;2.37;;;12.00;88.80;;;;;;5013097;28;20498;-73
2022/12/26 10:23:42;;;;;;;3.20;2.60;;;12.10;88.60;;;;;;5012596;28;20977;-74
2022/12/26 10:26:14;;;;;;;3.50;3.07;;;12.10;89.00;;;;;;5014894;28;20444;-74
2022/12/26 10:28:45;;;;;;;3.57;3.07;;;12.10;89.10;;;;;;5016709;28;20451;-74
2022/12/26 10:31:18;;;;;;;3.80;2.67;;;12.20;88.90;;;;;;5016349;28;20917;-74
2022/12/26 10:33:50;;;;;;;3.03;2.30;;;12.30;88.50;;;;;;5016605;28;20487;-74
2022/12/26 10:36:28;;;;;;;3.40;2.07;;;12.40;88.30;;;;;;5016574;28;20487;-74
2022/12/26 10:38:57;;;;;;;6.00;2.50;;;12.40;87.80;;;;;;5016303;28;20829;-74
2022/12/26 10:41:27;;;;;;;3.43;2.33;;;12.50;87.80;;;;;;5016345;28;20456;-74
2022/12/26 10:43:54;;;;;;;3.40;2.50;;;12.40;87.70;;;;;;5016351;28;20901;-74
2022/12/26 10:46:44;;;;;;;3.00;2.47;;;12.40;88.30;;;;;;5016260;28;20456;-74
2022/12/26 10:49:12;;;;;;;3.67;2.60;;;12.60;87.90;;;;;;5000039;28;20875;-73
2022/12/26 10:51:40;;;;;;;4.30;2.97;;;12.60;87.90;;;;;;5016359;28;20495;-75
2022/12/26 10:54:14;;;;;;;4.10;2.90;;;12.50;87.80;;;;;;5016886;28;20853;-74
2022/12/26 10:56:41;;;;;;;3.43;2.23;;;12.60;87.90;;;;;;5016160;28;20478;-74
2022/12/26 10:59:14;;;;;;;3.43;2.30;;;12.50;87.90;;;;;;5016062;28;20449;-75
2022/12/26 11:01:46;;;;;;;3.93;1.93;;;12.50;88.10;;;;;;5016160;28;20433;-74
2022/12/26 11:04:16;;;;;;;3.20;1.87;;;12.50;87.30;;;;;;5016107;28;20484;-74
2022/12/26 11:06:46;;;;;;;3.73;1.80;;;12.50;87.80;;;;;;5015981;28;20437;-74
2022/12/26 11:09:35;;;;;;;2.67;1.77;;;12.50;87.80;;;;;;5015996;28;20547;-74
2022/12/26 11:12:02;;;;;;;5.00;1.90;;;12.50;87.90;;;;;;5015928;28;20540;-74
2022/12/26 11:14:34;;;;;;;3.13;1.80;;;12.50;87.40;;;;;;5015766;28;20538;-74
2022/12/26 11:17:05;;;;;;;2.00;1.50;;;12.40;87.30;;;;;;5015876;28;20433;-74
2022/12/26 11:19:34;;;;;;;2.27;1.37;;;12.30;88.00;;;;;;5015522;28;20854;-74
2022/12/26 11:22:25;;;;;;;2.07;1.23;;;12.00;87.10;;;;;;5015971;28;20441;-74
2022/12/26 11:25:15;;;;;;;2.90;1.20;;;11.90;88.20;;;;;;5015611;28;20468;-74
2022/12/26 11:27:45;;;;;;;1.80;1.10;;;11.90;87.90;;;;;;5010711;28;20487;-74
2022/12/26 11:30:18;;;;;;;2.00;1.20;;;11.80;88.40;;;;;;5015508;28;20441;-74
2022/12/26 11:32:47;;;;;;;2.53;1.13;;;11.70;88.80;;;;;;5015656;28;20429;-74
2022/12/26 11:35:19;;;;;;;1.93;1.30;;;11.70;89.50;;;;;;5015385;28;20464;-74
2022/12/26 11:37:51;;;;;;;1.90;1.10;;;11.70;89.60;;;;;;5015198;28;20495;-74
2022/12/26 11:40:21;;;;;;;2.00;1.20;;;11.70;90.10;;;;;;5015139;28;20425;-74
2022/12/26 11:42:51;;;;;;;1.87;0.97;;;11.60;90.10;;;;;;5014947;28;20543;-73
2022/12/26 11:45:23;;;;;;;1.90;1.00;;;11.60;90.50;;;;;;5015049;28;20472;-74
2022/12/26 11:47:50;;;;;;;1.93;1.17;;;11.70;89.90;;;;;;5015194;28;20428;-74
2022/12/26 11:50:20;;;;;;;2.30;1.37;;;11.70;89.40;;;;;;5015149;28;20507;-74
2022/12/26 11:52:52;;;;;;;2.53;1.20;;;11.70;89.20;;;;;;5021553;28;20472;-74
2022/12/26 11:55:32;;;;;;;2.17;1.13;;;11.60;89.40;;;;;;5024986;28;20495;-73
2022/12/26 11:58:05;;;;;;;1.80;0.90;;;11.50;88.60;;;;;;5024209;28;20519;-74
2022/12/26 12:00:33;;;;;;;3.27;1.10;;;11.50;88.70;;;;;;5016779;28;20981;-73
2022/12/26 12:03:00;;;;;;;1.80;1.00;;;11.50;88.60;;;;;;5014781;28;20579;-73
2022/12/26 12:05:41;;;;;;;2.33;1.00;;;11.60;89.20;;;;;;5014985;28;20876;-74
2022/12/26 12:08:23;;;;;;;2.10;1.33;;;11.40;88.70;;;;;;5015279;28;20436;-74
2022/12/26 12:10:58;;;;;;;1.80;0.80;;;11.40;88.60;;;;;;5014981;28;20440;-74
2022/12/26 12:13:45;;;;;;;2.40;1.77;;;11.40;89.30;;;;;;5014709;28;20532;-73
2022/12/26 12:16:30;;;;;;;2.43;1.07;;;11.60;89.40;;;;;;5014682;28;20420;-74
2022/12/26 12:19:06;;;;;;;3.13;1.37;;;11.70;89.10;;;;;;5014750;28;20433;-74
2022/12/26 12:21:42;;;;;;;2.00;1.10;;;11.70;89.00;;;;;;5014324;28;20921;-74
2022/12/26 12:24:22;;;;;;;1.70;0.90;;;11.70;89.70;;;;;;5014374;28;20518;-74
2022/12/26 12:27:01;;;;;;;3.27;1.30;;;11.70;89.90;;;;;;5014563;28;20437;-74
2022/12/26 12:29:51;;;;;;;1.90;1.47;;;11.70;89.70;;;;;;5014527;28;20491;-74
2022/12/26 12:32:25;;;;;;;1.70;0.90;;;11.70;90.10;;;;;;5014375;28;20475;-72
2022/12/26 12:35:06;;;;;;;1.93;1.07;;;11.60;90.20;;;;;;5013979;28;20495;-73
2022/12/26 12:37:43;;;;;;;2.27;1.23;;;11.50;90.00;;;;;;5014451;28;20452;-72
2022/12/26 12:40:25;;;;;;;2.00;1.33;;;11.40;90.30;;;;;;5014552;28;20470;-74
2022/12/26 12:43:00;;;;;;;1.80;1.10;;;11.30;90.90;;;;;;5014267;28;20472;-72
2022/12/26 12:45:31;;;;;;;2.23;1.00;;;11.30;90.70;;;;;;5013978;28;20534;-73
2022/12/26 12:48:18;;;;;;;1.73;0.93;;;11.30;90.50;;;;;;5013477;28;20445;-73
2022/12/26 12:50:55;;;;;;;2.10;1.17;;;11.40;90.40;;;;;;5014089;28;20490;-73
2022/12/26 12:53:40;;;;;;;1.80;0.90;;;11.50;90.50;;;;;;5013938;28;20459;-73
2022/12/26 12:56:23;;;;;;;1.70;0.90;;;11.60;90.00;;;;;;5013875;28;20436;-73
2022/12/26 12:58:57;;;;;;;1.90;0.80;;;11.50;89.40;;;;;;5013932;28;20436;-73
2022/12/26 13:01:29;;;;;;;2.00;1.10;;;11.50;89.00;;;;;;5013943;28;20433;-73
2022/12/26 13:04:03;;;;;;;2.00;0.90;;;11.40;88.90;;;;;;5013729;28;20542;-73
2022/12/26 13:06:37;;;;;;;1.63;0.90;;;11.40;89.30;;;;;;5014555;28;20472;-73
2022/12/26 13:09:11;;;;;;;1.60;0.80;;;11.50;88.80;;;;;;5013790;28;20502;-72
2022/12/26 13:11:43;;;;;;;1.90;0.80;;;11.50;88.40;;;;;;5013374;28;20856;-73
2022/12/26 13:14:16;;;;;;;1.70;0.90;;;11.50;88.70;;;;;;5013518;28;20538;-72
2022/12/26 13:16:45;;;;;;;1.70;0.80;;;11.50;87.60;;;;;;5013417;28;20833;-72
2022/12/26 13:19:18;;;;;;;1.73;1.07;;;11.40;88.20;;;;;;5013705;28;20452;-72
2022/12/26 13:21:47;;;;;;;1.80;0.90;;;11.50;88.10;;;;;;5013377;28;20956;-73
2022/12/26 13:24:24;;;;;;;1.80;1.00;;;11.70;87.90;;;;;;5013592;28;20488;-72
2022/12/26 13:26:59;;;;;;;1.77;1.00;;;11.60;87.30;;;;;;5013650;28;20503;-72
2022/12/26 13:29:35;;;;;;;1.60;0.80;;;11.50;87.80;;;;;;5013811;28;20491;-73
2022/12/26 13:32:04;;;;;;;1.90;0.90;;;11.40;87.80;;;;;;5013184;28;20458;-72
2022/12/26 13:34:31;;;;;;;2.10;0.90;;;11.20;88.70;;;;;;5013469;28;20551;-72
2022/12/26 13:36:59;;;;;;;1.80;0.80;;;11.20;89.60;;;;;;5013519;28;20551;-73
2022/12/26 13:39:39;;;;;;;1.93;0.83;;;11.10;89.10;;;;;;5013109;28;20876;-72
2022/12/26 13:45:40;;;;;;;1.77;0.90;;;11.30;90.30;;;;;;5013388;28;20483;-73
2022/12/26 13:48:40;;;;;;;1.60;0.80;;;11.40;89.10;;;;;;5013485;28;20447;-73
2022/12/26 13:51:58;;;;;;;2.30;1.00;;;11.40;89.40;;;;;;5013176;28;20444;-73
2022/12/26 13:54:27;;;;;;;1.67;0.73;;;11.30;89.40;;;;;;5012943;28;20970;-73
2022/12/26 13:57:34;;;;;;;3.07;1.10;;;11.20;89.80;;;;;;5013287;28;20440;-72
2022/12/26 14:00:13;;;;;;;2.60;1.17;;;11.00;89.90;;;;;;5015079;28;20483;-73
2022/12/26 14:03:12;;;;;;;1.60;0.80;;;11.10;90.80;;;;;;5017365;28;20428;-73
2022/12/26 14:05:50;;;;;;;1.70;0.90;;;11.10;90.90;;;;;;5017005;28;20468;-72
2022/12/26 14:08:28;;;;;;;1.87;0.97;;;11.10;90.40;;;;;;5017103;28;20487;-71
2022/12/26 14:11:09;;;;;;;2.00;1.00;;;11.20;90.50;;;;;;5016996;28;20519;-72
2022/12/26 14:13:53;;;;;;;1.57;0.77;;;11.30;90.20;;;;;;5016867;28;20425;-72
2022/12/26 14:16:30;;;;;;;2.00;1.10;;;11.30;90.30;;;;;;5017090;28;20432;-74
2022/12/26 14:19:03;;;;;;;1.90;1.00;;;11.40;89.60;;;;;;5017111;28;20420;-75
2022/12/26 14:21:39;;;;;;;8.33;1.63;;;11.30;89.90;;;;;;5017037;28;20436;-75
2022/12/26 14:24:18;;;;;;;2.10;1.20;;;11.30;90.20;;;;;;5016767;28;20484;-77
2022/12/26 14:26:51;;;;;;;1.73;1.00;;;11.10;90.20;;;;;;5016918;28;20428;-76
2022/12/26 14:29:24;;;;;;;2.60;1.00;;;11.30;90.60;;;;;;5016548;28;20436;-74
2022/12/26 14:32:03;;;;;;;1.67;0.80;;;11.30;90.00;;;;;;5017032;28;20495;-75
2022/12/26 14:34:45;;;;;;;7.13;1.23;;;11.20;90.00;;;;;;5016740;28;20471;-75
2022/12/26 14:37:20;;;;;;;2.43;1.00;;;11.10;90.10;;;;;;5016633;28;20906;-75
2022/12/26 14:40:03;;;;;;;1.80;0.97;;;11.00;90.20;;;;;;5017467;28;20852;-75
2022/12/26 14:45:40;;;;;;;1.53;0.70;;;11.10;90.20;;;;;;5016097;28;20483;-74
2022/12/26 14:48:40;;;;;;;1.80;1.00;;;11.00;90.30;;;;;;5011801;28;20452;-76
2022/12/26 14:51:43;;;;;;;2.20;1.47;;;11.00;90.30;;;;;;5016013;28;20510;-76
2022/12/26 14:54:45;;;;;;;1.90;0.93;;;11.10;89.90;;;;;;5016288;28;20510;-76
2022/12/26 14:57:47;;;;;;;1.80;0.80;;;11.20;89.30;;;;;;5016342;28;20436;-76
2022/12/26 15:00:29;;;;;;;2.03;0.90;;;11.30;89.60;;;;;;5016172;28;20424;-76
2022/12/26 15:03:43;;;;;;;1.70;0.90;;;11.30;88.60;;;;;;5016303;28;20433;-76
2022/12/26 15:06:33;;;;;;;1.70;0.90;;;11.30;88.60;;;;;;4936400;29;20451;-76
2022/12/26 15:09:18;;;;;;;1.80;0.93;;;11.10;88.70;;;;;;4936540;29;20523;-76
2022/12/26 15:12:09;;;;;;;1.80;0.90;;;11.00;89.30;;;;;;5001087;28;20502;-75
2022/12/26 15:14:57;;;;;;;1.60;0.70;;;10.90;89.30;;;;;;5012675;28;20479;-74
2022/12/26 15:17:33;;;;;;;1.80;0.90;;;10.90;89.60;;;;;;5016046;28;20523;-72
2022/12/26 15:20:24;;;;;;;1.70;0.80;;;10.80;89.60;;;;;;5015761;28;20479;-74
2022/12/26 15:23:14;;;;;;;1.70;0.80;;;10.70;90.40;;;;;;5012713;28;20461;-74
2022/12/26 15:26:15;;;;;;;2.20;0.80;;;10.60;90.30;;;;;;5015804;28;20523;-73
2022/12/26 15:29:25;;;;;;;1.93;0.80;;;10.70;90.40;;;;;;5015656;28;20939;-73
2022/12/26 15:32:03;;;;;;;1.70;0.90;;;10.70;90.50;;;;;;5015797;28;20816;-73
2022/12/26 15:34:51;;;;;;;2.37;1.20;;;10.70;89.80;;;;;;5022575;28;20532;-73
2022/12/26 15:37:29;;;;;;;2.07;0.93;;;10.90;90.10;;;;;;5033018;28;20460;-74
2022/12/26 15:40:04;;;;;;;1.93;1.00;;;10.90;89.40;;;;;;5032596;28;20929;-74
2022/12/26 15:42:42;;;;;;;1.60;0.80;;;10.90;89.00;;;;;;5016568;28;20428;-73
2022/12/26 15:45:25;;;;;;;1.80;0.90;;;10.70;89.60;;;;;;5016665;28;20551;-73
2022/12/26 15:48:01;;;;;;;1.97;1.00;;;10.80;89.50;;;;;;5015576;28;20437;-74
2022/12/26 15:50:32;;;;;;;2.17;0.80;;;11.00;89.50;;;;;;5015498;28;20437;-75
2022/12/26 15:53:20;;;;;;;1.60;0.80;;;11.10;88.80;;;;;;5015471;28;20441;-75
2022/12/26 15:56:04;;;;;;;1.80;0.80;;;11.10;88.40;;;;;;5015183;28;20465;-75
2022/12/26 15:58:52;;;;;;;1.70;0.90;;;11.10;88.50;;;;;;5015200;28;20525;-74
2022/12/26 16:01:35;;;;;;;2.47;0.80;;;11.20;88.20;;;;;;5015072;28;20479;-74
2022/12/26 16:04:06;;;;;;;2.10;1.00;;;11.20;88.20;;;;;;5014883;28;20480;-73
2022/12/26 16:06:45;;;;;;;1.93;1.13;;;11.20;87.80;;;;;;5014983;28;20433;-75
2022/12/26 16:09:23;;;;;;;2.23;0.90;;;11.10;88.40;;;;;;5014977;28;20495;-75
2022/12/26 16:11:54;;;;;;;1.80;0.90;;;11.10;88.20;;;;;;5014942;28;20432;-75
2022/12/26 16:14:31;;;;;;;1.80;0.80;;;11.20;88.30;;;;;;5116897;23;20474;-75
2022/12/26 16:17:18;;;;;;;2.37;1.33;;;11.30;88.10;;;;;;5014773;28;20464;-75
2022/12/26 16:19:48;;;;;;;2.07;1.17;;;11.20;88.10;;;;;;5014821;28;20432;-75
2022/12/26 16:25:02;;;;;;;1.80;0.90;;;11.10;88.10;;;;;;5014335;28;20486;-77
2022/12/26 16:27:30;;;;;;;2.07;1.17;;;11.10;88.40;;;;;;5014780;28;20452;-77
2022/12/26 16:29:59;;;;;;;1.90;1.10;;;11.10;87.90;;;;;;5014565;28;20452;-77
2022/12/26 16:32:30;;;;;;;2.40;1.30;;;11.20;88.20;;;;;;5014656;28;20448;-77
2022/12/26 16:34:59;;;;;;;1.73;0.90;;;11.10;87.70;;;;;;5014940;28;20461;-75
2022/12/26 16:37:27;;;;;;;2.37;1.03;;;11.20;87.80;;;;;;5014397;28;20449;-77
2022/12/26 16:40:23;;;;;;;2.30;1.07;;;11.30;87.70;;;;;;5014135;28;20441;-75
2022/12/26 16:43:01;;;;;;;1.80;0.90;;;11.40;87.00;;;;;;4969513;28;20449;-76
2022/12/26 16:45:32;;;;;;;1.60;0.90;;;11.40;86.90;;;;;;5014079;28;20492;-77
2022/12/26 16:47:59;;;;;;;1.80;0.93;;;11.40;86.60;;;;;;5014227;28;20443;-76
2022/12/26 16:50:31;;;;;;;1.70;0.80;;;11.20;87.00;;;;;;5014372;28;20453;-77
2022/12/26 16:53:09;;;;;;;2.07;1.23;;;11.30;87.30;;;;;;5014373;28;20464;-76
2022/12/26 16:55:40;;;;;;;1.83;0.90;;;11.30;87.10;;;;;;5013887;28;20869;-76
2022/12/26 16:58:14;;;;;;;1.73;0.87;;;11.20;86.90;;;;;;5014339;28;20853;-77
2022/12/26 17:00:53;;;;;;;1.73;0.90;;;11.20;87.30;;;;;;5014192;28;20429;-76
2022/12/26 17:03:27;;;;;;;1.87;0.90;;;11.20;87.10;;;;;;5014121;28;20490;-77
2022/12/26 17:05:56;;;;;;;1.70;0.93;;;11.10;87.20;;;;;;5014404;28;20484;-75
2022/12/26 17:08:24;;;;;;;1.73;0.90;;;11.20;87.20;;;;;;5014212;28;20548;-75
2022/12/26 17:10:52;;;;;;;2.20;1.10;;;11.30;87.30;;;;;;5014018;28;20459;-75
2022/12/26 17:13:24;;;;;;;1.90;0.90;;;11.30;87.10;;;;;;5014137;28;20463;-75
2022/12/26 17:15:53;;;;;;;1.80;0.90;;;11.30;86.80;;;;;;5013492;28;20480;-74
2022/12/26 17:18:40;;;;;;;2.00;1.07;;;11.40;86.50;;;;;;5013817;28;20444;-75
2022/12/26 17:21:20;;;;;;;1.70;0.93;;;11.40;86.70;;;;;;5013640;28;20914;-76
2022/12/26 17:24:25;;;;;;;2.00;1.10;;;11.40;86.60;;;;;;5013917;28;20437;-77
2022/12/26 17:27:07;;;;;;;1.60;0.80;;;11.40;86.30;;;;;;5013470;28;20940;-76
2022/12/26 17:29:46;;;;;;;1.90;1.07;;;11.30;86.70;;;;;;5014025;28;20520;-76
2022/12/26 17:32:15;;;;;;;2.20;1.50;;;11.30;86.50;;;;;;5013451;28;20441;-76
2022/12/26 17:34:42;;;;;;;2.00;1.30;;;11.20;87.10;;;;;;5016252;28;20823;-75
2022/12/26 17:37:19;;;;;;;2.30;1.43;;;11.30;86.90;;;;;;5020259;28;20460;-75
2022/12/26 17:39:54;;;;;;;2.20;1.30;;;11.40;87.00;;;;;;5020300;28;20486;-75
2022/12/26 17:42:21;;;;;;;1.80;1.10;;;11.40;86.70;;;;;;5020258;28;20432;-75
2022/12/26 17:44:48;;;;;;;1.90;1.00;;;11.50;86.40;;;;;;5020041;28;20492;-75
2022/12/26 17:47:20;;;;;;;2.10;1.20;;;11.50;86.20;;;;;;5020089;28;20447;-75
2022/12/26 17:49:49;;;;;;;2.10;1.13;;;11.50;86.20;;;;;;5020102;28;20444;-74
2022/12/26 17:52:20;;;;;;;1.80;1.10;;;11.50;86.20;;;;;;5020019;28;20876;-76
2022/12/26 17:54:48;;;;;;;1.97;1.33;;;11.60;86.50;;;;;;5020019;28;20496;-76
2022/12/26 17:57:17;;;;;;;2.70;1.10;;;11.50;86.70;;;;;;5020071;28;20483;-76
2022/12/26 17:59:44;;;;;;;1.93;1.20;;;11.60;87.00;;;;;;5020002;28;20506;-75
2022/12/26 18:02:11;;;;;;;2.17;1.10;;;11.70;87.00;;;;;;5019860;28;20448;-76
2022/12/26 18:04:37;;;;;;;3.07;1.20;;;11.70;87.00;;;;;;5019449;28;20484;-75
2022/12/26 18:07:05;;;;;;;1.97;1.10;;;11.60;87.20;;;;;;5019921;28;20503;-75
2022/12/26 18:09:33;;;;;;;2.87;1.30;;;11.50;87.50;;;;;;5019841;28;20474;-75
2022/12/26 18:11:59;;;;;;;2.00;1.23;;;11.40;88.20;;;;;;5019820;28;20452;-75
2022/12/26 18:14:26;;;;;;;2.80;1.20;;;11.30;88.50;;;;;;5019680;28;20475;-75
2022/12/26 18:16:53;;;;;;;2.13;1.03;;;11.00;88.10;;;;;;5019858;28;20464;-75
2022/12/26 18:19:20;;;;;;;2.10;1.10;;;10.90;89.00;;;;;;5019699;28;20456;-75
2022/12/26 18:21:47;;;;;;;1.97;1.00;;;10.80;89.10;;;;;;5019725;28;20860;-75
2022/12/26 18:24:14;;;;;;;2.20;1.07;;;10.80;89.40;;;;;;5019489;28;20444;-75
2022/12/26 18:26:42;;;;;;;1.70;0.80;;;10.60;88.70;;;;;;5019759;28;20506;-75
2022/12/26 18:29:10;;;;;;;2.30;0.87;;;10.40;89.20;;;;;;5019334;28;21016;-75
2022/12/26 18:31:38;;;;;;;2.10;0.80;;;10.30;90.10;;;;;;5019734;28;20450;-75
2022/12/26 18:34:04;;;;;;;1.60;0.77;;;10.20;90.30;;;;;;5019661;28;20497;-74
2022/12/26 18:36:33;;;;;;;2.00;0.80;;;10.20;90.10;;;;;;5019257;28;20843;-76
2022/12/26 18:39:00;;;;;;;1.90;0.70;;;10.10;90.20;;;;;;5019660;28;20447;-76
2022/12/26 18:41:27;;;;;;;2.93;1.20;;;10.00;89.80;;;;;;5019565;28;20502;-76
2022/12/26 18:43:56;;;;;;;1.50;0.70;;;10.00;89.80;;;;;;5019562;28;20526;-76